Unbenanntes Dokument
Flugplatz Bielefeld Platzwetter

 

Aktuelles Platzwetter am Flugplatz Bielefeld EDLI

26.07.17 ,14:46 Uhr

METAR EDLI 261445Z 29005KT 9999 ///049 20/14 Q1009

 

Windwerte

 

Wolkenuntergrenzen

Wind aktuell:290 ° mit 4 kt
Wind 10 min Extrem:
260 ° bis 310 ° mit 3 kt bis 6 kt
Seitenwindkomponente: 0.5 kt
Wolkengrenze 1: 5400 ft
Wolkengrenze 2:
Wolkengrenze 3:

Webcam

Temperatur

       

Sichtweite:

20.000 Meter

20.6 °C
Taupunkt: 14.6 °C
Luftfeuchtigkeit: 68 %

Luftdruck:

QNH: 1009 hPa (29.80 in Hg)
QFE: 992 hPa (29.29 in Hg)

Diese Daten werden automatisch ermittelt bzw. übertragen und sind nicht geprüft. Für die Richtigkeit wird daher keine Gewähr übernommen. Sie ersetzen im übrigen nicht die Flugwetterberatung. Alle Zeitangaben beziehen sich auf UTC. Die Seite wird einmal die Minute aktualisiert! Sollten Sie ein ältere Seite haben, so drücken Sie bitte auf den Reload Button Ihres Browsers!